createdAt,value
2023-02-23T00:01:33.269Z,8.70
2023-02-23T00:03:36.024Z,16.80
2023-02-23T00:05:38.788Z,14.95
2023-02-23T00:07:43.792Z,13.18
2023-02-23T00:09:47.231Z,14.30
2023-02-23T00:11:50.208Z,12.30
2023-02-23T00:13:52.909Z,17.42
2023-02-23T00:15:56.999Z,21.38
2023-02-23T00:17:59.935Z,17.83
2023-02-23T00:20:07.567Z,21.80
2023-02-23T00:22:10.498Z,27.38
2023-02-23T00:24:15.514Z,37.72
2023-02-23T00:26:20.788Z,31.63
2023-02-23T00:28:23.878Z,23.52
2023-02-23T00:30:26.698Z,22.05
2023-02-23T00:32:31.043Z,18.83
2023-02-23T00:34:35.680Z,20.27
2023-02-23T00:36:39.879Z,20.98
2023-02-23T00:38:42.950Z,19.20
2023-02-23T00:40:46.358Z,20.25
2023-02-23T00:42:52.295Z,22.02
2023-02-23T00:44:57.221Z,19.38
2023-02-23T00:47:00.022Z,22.58
2023-02-23T00:49:05.142Z,21.00
2023-02-23T00:51:07.866Z,20.52
2023-02-23T00:53:11.564Z,21.65
2023-02-23T00:55:16.212Z,18.98
2023-02-23T00:57:18.973Z,19.48
2023-02-23T00:59:21.752Z,20.42
2023-02-23T01:01:25.955Z,20.08
2023-02-23T01:03:29.879Z,20.30
2023-02-23T01:05:36.516Z,17.83
2023-02-23T01:07:39.698Z,15.73
2023-02-23T01:09:42.647Z,17.75
2023-02-23T01:11:47.175Z,17.92
2023-02-23T01:13:54.117Z,21.88
2023-02-23T01:15:56.932Z,24.42
2023-02-23T01:18:01.667Z,21.08
2023-02-23T01:20:13.150Z,23.35
2023-02-23T01:22:17.261Z,21.92
2023-02-23T01:24:21.391Z,21.40
2023-02-23T01:26:27.668Z,18.70
2023-02-23T01:28:30.704Z,21.58
2023-02-23T01:30:33.527Z,20.40
2023-02-23T01:32:37.567Z,20.08
2023-02-23T01:34:40.371Z,24.15
2023-02-23T01:36:44.688Z,18.17
2023-02-23T01:38:49.153Z,20.38
2023-02-23T01:40:52.025Z,18.75
2023-02-23T01:42:54.886Z,20.92
2023-02-23T01:45:22.610Z,20.20
2023-02-23T01:47:26.800Z,16.80
2023-02-23T01:49:31.872Z,18.38
2023-02-23T01:51:40.145Z,20.42
2023-02-23T01:53:46.048Z,18.65
2023-02-23T01:55:55.029Z,20.58
2023-02-23T01:58:15.129Z,17.05
2023-02-23T02:00:20.165Z,17.88
2023-02-23T02:02:33.676Z,18.10
2023-02-23T02:04:44.499Z,20.23
2023-02-23T02:06:53.349Z,20.10
2023-02-23T02:09:00.023Z,22.25
2023-02-23T02:11:15.449Z,19.95
2023-02-23T02:13:22.966Z,24.08
2023-02-23T02:15:34.692Z,22.55
2023-02-23T02:17:46.867Z,17.83
2023-02-23T02:20:32.772Z,18.25
2023-02-23T02:23:09.645Z,21.17
2023-02-23T02:25:33.750Z,16.98
2023-02-23T02:27:57.375Z,18.70
2023-02-23T02:30:37.448Z,20.30
2023-02-23T02:33:11.019Z,16.35
2023-02-23T02:35:42.650Z,18.67
2023-02-23T02:38:01.647Z,19.45
2023-02-23T02:40:16.689Z,17.08
2023-02-23T02:42:23.690Z,16.52
2023-02-23T02:44:33.267Z,17.15
2023-02-23T02:46:39.322Z,19.75
2023-02-23T02:48:50.390Z,14.45
2023-02-23T02:50:57.235Z,17.02
2023-02-23T02:53:06.630Z,15.40
2023-02-23T02:55:16.096Z,16.45
2023-02-23T02:57:20.968Z,15.98
2023-02-23T02:59:42.015Z,15.75
2023-02-23T03:02:03.030Z,17.33
2023-02-23T03:04:39.238Z,17.73
2023-02-23T03:07:05.871Z,16.63
2023-02-23T03:09:37.457Z,16.55
2023-02-23T03:12:03.605Z,17.67
2023-02-23T03:14:39.052Z,20.08
2023-02-23T03:17:05.678Z,19.25
2023-02-23T03:19:33.285Z,19.42
2023-02-23T03:22:07.684Z,16.67
2023-02-23T03:24:42.007Z,18.05
2023-02-23T03:27:14.393Z,18.83
2023-02-23T03:29:42.320Z,18.13
2023-02-23T03:32:10.074Z,17.77
2023-02-23T03:34:35.881Z,19.75
2023-02-23T03:37:01.978Z,24.40
2023-02-23T03:39:32.217Z,18.38
2023-02-23T03:41:55.764Z,23.75
2023-02-23T03:44:20.737Z,28.42
2023-02-23T03:46:45.403Z,28.85
2023-02-23T03:49:08.972Z,32.42
2023-02-23T03:51:32.405Z,26.85
2023-02-23T03:53:59.204Z,17.67
2023-02-23T03:56:20.579Z,15.75
2023-02-23T03:58:48.777Z,16.00
2023-02-23T04:01:11.542Z,13.45
2023-02-23T04:03:35.608Z,15.25
2023-02-23T04:05:59.772Z,14.75
2023-02-23T04:08:22.494Z,15.00
2023-02-23T04:10:47.429Z,15.80
2023-02-23T04:13:15.084Z,13.90
2023-02-23T04:15:26.551Z,16.92
2023-02-23T04:17:35.568Z,13.63
2023-02-23T04:19:38.333Z,12.85
2023-02-23T04:21:41.090Z,13.68
2023-02-23T04:23:44.335Z,13.75
2023-02-23T04:25:47.893Z,14.23
2023-02-23T04:27:50.892Z,13.60
2023-02-23T04:29:53.632Z,14.40
2023-02-23T04:31:57.838Z,12.95
2023-02-23T04:34:00.664Z,16.55
2023-02-23T04:36:03.427Z,15.20
2023-02-23T04:38:06.417Z,12.55
2023-02-23T04:40:10.587Z,15.23
2023-02-23T04:42:13.895Z,12.25
2023-02-23T04:44:16.734Z,12.77
2023-02-23T04:46:19.491Z,11.98
2023-02-23T04:48:25.107Z,14.23
2023-02-23T04:50:27.865Z,13.38
2023-02-23T04:52:31.397Z,13.98
2023-02-23T04:54:34.284Z,14.25
2023-02-23T04:56:37.167Z,10.32
2023-02-23T04:58:39.992Z,11.43
2023-02-23T05:00:42.987Z,13.00
2023-02-23T05:02:46.389Z,13.15
2023-02-23T05:04:50.443Z,13.10
2023-02-23T05:06:53.235Z,18.13
2023-02-23T05:08:55.989Z,11.68
2023-02-23T05:10:58.722Z,14.00
2023-02-23T05:13:02.106Z,14.32
2023-02-23T05:15:05.486Z,14.07
2023-02-23T05:17:08.813Z,14.07
2023-02-23T05:19:11.668Z,12.32
2023-02-23T05:21:15.803Z,15.70
2023-02-23T05:23:19.428Z,14.40
2023-02-23T05:25:22.143Z,12.18
2023-02-23T05:27:24.871Z,13.20
2023-02-23T05:29:27.696Z,13.02
2023-02-23T05:31:30.583Z,12.93
2023-02-23T05:33:34.588Z,11.93
2023-02-23T05:35:41.642Z,11.15
2023-02-23T05:37:45.729Z,14.57
2023-02-23T05:39:48.651Z,10.23
2023-02-23T05:41:51.397Z,11.55
2023-02-23T05:43:55.631Z,8.15
2023-02-23T05:45:58.610Z,9.88
2023-02-23T05:48:01.517Z,10.43
2023-02-23T05:50:04.975Z,12.80
2023-02-23T05:52:08.370Z,17.50
2023-02-23T05:54:13.385Z,14.48
2023-02-23T05:56:20.684Z,16.13
2023-02-23T05:58:23.917Z,17.52
2023-02-23T06:00:26.795Z,21.08
2023-02-23T06:02:29.578Z,15.57
2023-02-23T06:04:32.386Z,23.60
2023-02-23T06:06:35.139Z,17.77
2023-02-23T06:08:38.018Z,35.08
2023-02-23T06:10:42.081Z,26.23
2023-02-23T06:12:44.820Z,28.85
2023-02-23T06:14:47.553Z,26.90
2023-02-23T06:16:50.305Z,18.38
2023-02-23T06:18:53.095Z,18.77
2023-02-23T06:20:58.257Z,18.73
2023-02-23T06:23:01.015Z,19.75
2023-02-23T06:25:04.927Z,23.17
2023-02-23T06:27:09.109Z,16.17
2023-02-23T06:29:12.339Z,15.10
2023-02-23T06:31:15.123Z,11.45
2023-02-23T06:33:17.877Z,13.13
2023-02-23T06:35:20.816Z,14.00
2023-02-23T06:37:23.649Z,13.88
2023-02-23T06:39:26.416Z,27.92
2023-02-23T06:41:29.154Z,26.67
2023-02-23T06:43:33.422Z,26.67
2023-02-23T06:45:36.162Z,24.48
2023-02-23T06:47:38.950Z,21.92
2023-02-23T06:49:41.628Z,17.52
2023-02-23T06:51:44.355Z,19.92
2023-02-23T06:53:47.188Z,14.38
2023-02-23T06:55:49.936Z,13.73
2023-02-23T06:57:54.245Z,15.85
2023-02-23T06:59:58.366Z,16.15
2023-02-23T07:02:01.732Z,23.75
2023-02-23T07:04:05.443Z,27.80
2023-02-23T07:06:08.271Z,27.90
2023-02-23T07:08:11.349Z,22.38
2023-02-23T07:10:14.089Z,19.23
2023-02-23T07:12:16.926Z,27.70
2023-02-23T07:14:26.440Z,37.95
2023-02-23T07:16:30.938Z,14.40
2023-02-23T07:18:33.788Z,7.68
2023-02-23T07:20:36.519Z,7.22
2023-02-23T07:22:40.066Z,16.80
2023-02-23T07:24:42.827Z,15.25
2023-02-23T07:26:47.313Z,13.57
2023-02-23T07:28:50.189Z,9.45
2023-02-23T07:30:52.953Z,11.65
2023-02-23T07:32:57.058Z,11.50
2023-02-23T07:34:59.799Z,9.02
2023-02-23T07:37:02.543Z,9.43
2023-02-23T07:39:06.079Z,10.68
2023-02-23T07:41:08.791Z,12.43
2023-02-23T07:43:11.528Z,7.85
2023-02-23T07:45:14.316Z,9.80
2023-02-23T07:47:17.044Z,10.30
2023-02-23T07:49:21.143Z,8.88
2023-02-23T07:51:23.862Z,12.02
2023-02-23T07:53:27.840Z,11.50
2023-02-23T07:55:30.601Z,14.05
2023-02-23T07:57:33.563Z,11.77
2023-02-23T07:59:37.012Z,10.75
2023-02-23T08:01:39.736Z,11.18
2023-02-23T08:03:49.335Z,9.77
2023-02-23T08:05:53.472Z,10.18
2023-02-23T08:07:57.842Z,9.85
2023-02-23T08:10:00.612Z,8.02
2023-02-23T08:12:03.462Z,8.13
2023-02-23T08:14:06.189Z,9.98
2023-02-23T08:16:09.505Z,10.82
2023-02-23T08:18:12.399Z,11.15
2023-02-23T08:20:15.376Z,8.43
2023-02-23T08:22:19.484Z,9.77
2023-02-23T08:24:22.210Z,11.77
2023-02-23T08:26:25.484Z,10.13
2023-02-23T08:28:29.384Z,10.20
2023-02-23T08:30:32.452Z,8.90
2023-02-23T08:32:35.983Z,10.25
2023-02-23T08:34:40.353Z,7.78
2023-02-23T08:36:45.715Z,9.68
2023-02-23T08:38:50.425Z,12.93
2023-02-23T08:40:53.327Z,10.75
2023-02-23T08:42:56.049Z,7.75
2023-02-23T08:44:59.191Z,8.45
2023-02-23T08:47:04.663Z,8.50
2023-02-23T08:49:10.608Z,9.95
2023-02-23T08:51:14.606Z,7.18
2023-02-23T08:53:17.412Z,8.52
2023-02-23T08:55:21.759Z,7.32
2023-02-23T08:57:24.567Z,8.05
2023-02-23T08:59:28.042Z,10.70
2023-02-23T09:01:30.792Z,7.22
2023-02-23T09:03:38.292Z,11.95
2023-02-23T09:05:43.311Z,12.70
2023-02-23T09:07:47.168Z,8.52
2023-02-23T09:09:54.985Z,6.68
2023-02-23T09:12:00.002Z,10.63
2023-02-23T09:14:02.902Z,11.75
2023-02-23T09:16:07.694Z,9.73
2023-02-23T09:18:14.700Z,7.75
2023-02-23T09:20:18.161Z,8.80
2023-02-23T09:22:20.870Z,10.27
2023-02-23T09:24:23.650Z,9.57
2023-02-23T09:26:28.493Z,14.95
2023-02-23T09:28:33.956Z,13.00
2023-02-23T09:30:37.034Z,12.15
2023-02-23T09:32:39.818Z,15.80
2023-02-23T09:34:42.646Z,15.43
2023-02-23T09:36:45.388Z,13.35
2023-02-23T09:38:52.314Z,16.35
2023-02-23T09:40:55.538Z,11.30
2023-02-23T09:43:03.711Z,9.65
2023-02-23T09:45:27.142Z,13.75
2023-02-23T09:47:40.397Z,13.40
2023-02-23T09:49:48.077Z,9.07
2023-02-23T09:51:57.565Z,9.05
2023-02-23T09:54:04.406Z,11.02
2023-02-23T09:56:13.943Z,13.17
2023-02-23T09:58:23.852Z,7.90
2023-02-23T10:00:28.353Z,7.97
2023-02-23T10:02:39.658Z,8.03
2023-02-23T10:04:47.670Z,9.57
2023-02-23T10:06:58.926Z,8.97
2023-02-23T10:09:14.504Z,12.17
2023-02-23T10:11:28.143Z,8.20
2023-02-23T10:13:45.047Z,10.83
2023-02-23T10:15:55.889Z,15.30
2023-02-23T10:18:13.012Z,9.33
2023-02-23T10:20:25.529Z,7.20
2023-02-23T10:22:29.845Z,9.17
2023-02-23T10:24:37.682Z,10.03
2023-02-23T10:26:44.186Z,8.87
2023-02-23T10:28:47.750Z,8.73
2023-02-23T10:30:53.692Z,10.27
2023-02-23T10:33:02.628Z,9.10
2023-02-23T10:35:12.156Z,11.40
2023-02-23T10:37:18.343Z,9.07
2023-02-23T10:39:21.062Z,10.73
2023-02-23T10:41:24.390Z,8.80
2023-02-23T10:43:27.085Z,8.03
2023-02-23T10:45:32.072Z,11.17
2023-02-23T10:47:37.532Z,8.93
2023-02-23T10:49:45.101Z,8.07
2023-02-23T10:51:47.893Z,10.87
2023-02-23T10:53:52.819Z,13.13
2023-02-23T10:56:05.930Z,10.37
2023-02-23T10:58:17.006Z,9.57
2023-02-23T11:00:31.008Z,10.03
2023-02-23T11:02:36.379Z,7.60
2023-02-23T11:04:53.036Z,10.67
2023-02-23T11:07:09.423Z,11.10
2023-02-23T11:09:41.277Z,9.33
2023-02-23T11:11:57.961Z,12.30
2023-02-23T11:14:08.155Z,12.37
2023-02-23T11:16:13.841Z,8.50
2023-02-23T11:18:22.670Z,10.17
2023-02-23T11:20:33.273Z,10.77
2023-02-23T11:22:38.233Z,7.63
2023-02-23T11:24:42.391Z,9.93
2023-02-23T11:26:46.255Z,15.50
2023-02-23T11:28:52.385Z,9.33
2023-02-23T11:30:55.173Z,9.77
2023-02-23T11:33:09.731Z,6.97
2023-02-23T11:35:27.434Z,8.70
2023-02-23T11:37:32.446Z,9.50
2023-02-23T11:39:35.757Z,10.50
2023-02-23T11:41:38.502Z,11.63
2023-02-23T11:43:49.883Z,6.73
2023-02-23T11:45:56.467Z,8.57
2023-02-23T11:48:00.674Z,9.70
2023-02-23T11:50:05.664Z,17.43
2023-02-23T11:52:15.687Z,13.17
2023-02-23T11:54:26.020Z,11.07
2023-02-23T11:56:31.752Z,10.70
2023-02-23T11:58:40.128Z,10.50
2023-02-23T12:00:43.713Z,11.77
2023-02-23T12:02:51.471Z,12.93
2023-02-23T12:05:05.353Z,8.83
2023-02-23T12:07:29.565Z,12.53
2023-02-23T12:09:36.744Z,13.63
2023-02-23T12:11:44.827Z,11.17
2023-02-23T12:13:51.816Z,12.00
2023-02-23T12:15:59.766Z,12.90
2023-02-23T12:18:09.293Z,15.07
2023-02-23T12:20:16.735Z,12.33
2023-02-23T12:22:23.856Z,10.10
2023-02-23T12:24:33.168Z,14.23
2023-02-23T12:26:46.325Z,12.07
2023-02-23T12:28:54.074Z,12.83
2023-02-23T12:31:02.895Z,11.03
2023-02-23T12:33:11.336Z,10.30
2023-02-23T12:35:20.276Z,10.33
2023-02-23T12:37:37.108Z,18.83
2023-02-23T12:39:44.377Z,11.40
2023-02-23T12:41:56.805Z,16.47
2023-02-23T12:44:04.382Z,14.23
2023-02-23T12:46:14.265Z,13.33
2023-02-23T12:48:32.424Z,12.77
2023-02-23T12:50:43.221Z,15.40
2023-02-23T12:52:53.692Z,19.27
2023-02-23T12:54:56.625Z,10.13
2023-02-23T12:57:12.912Z,10.43
2023-02-23T12:59:32.905Z,11.57
2023-02-23T13:01:41.024Z,8.07
2023-02-23T13:04:10.711Z,10.07
2023-02-23T13:06:21.027Z,7.77
2023-02-23T13:08:30.246Z,9.70
2023-02-23T13:10:43.524Z,9.40
2023-02-23T13:12:57.895Z,9.60
2023-02-23T13:15:13.325Z,9.30
2023-02-23T13:17:32.943Z,7.85
2023-02-23T13:19:42.585Z,12.32
2023-02-23T13:21:51.265Z,13.57
2023-02-23T13:24:03.030Z,11.20
2023-02-23T13:26:17.559Z,10.87
2023-02-23T13:28:29.381Z,9.27
2023-02-23T13:30:33.478Z,10.63
2023-02-23T13:32:37.816Z,79.20
2023-02-23T13:34:44.030Z,12.20
2023-02-23T13:36:47.035Z,14.80
2023-02-23T13:39:18.475Z,13.30
2023-02-23T13:41:34.620Z,13.83
2023-02-23T13:43:47.433Z,13.93
2023-02-23T13:45:58.618Z,12.65
2023-02-23T13:48:07.839Z,11.20
2023-02-23T13:50:22.546Z,11.38
2023-02-23T13:52:31.736Z,10.57
2023-02-23T13:54:36.477Z,12.10
2023-02-23T13:56:44.315Z,10.45
2023-02-23T13:58:52.851Z,10.40
2023-02-23T14:01:06.439Z,13.02
2023-02-23T14:03:23.263Z,11.13
2023-02-23T14:05:29.961Z,10.93
2023-02-23T14:07:39.664Z,14.50
2023-02-23T14:09:48.356Z,11.87
2023-02-23T14:11:53.592Z,13.97
2023-02-23T14:14:02.684Z,8.37
2023-02-23T14:16:17.959Z,12.57
2023-02-23T14:18:33.139Z,9.90
2023-02-23T14:20:47.909Z,9.30
2023-02-23T14:23:17.083Z,9.07
2023-02-23T14:25:49.330Z,9.27
2023-02-23T14:28:00.465Z,8.57
2023-02-23T14:30:25.351Z,11.93
2023-02-23T14:32:30.812Z,10.17
2023-02-23T14:34:49.139Z,16.27
2023-02-23T14:36:56.399Z,7.13
2023-02-23T14:39:02.212Z,9.83
2023-02-23T14:41:09.824Z,8.43
2023-02-23T14:43:34.035Z,9.67
2023-02-23T14:45:40.036Z,15.77
2023-02-23T14:47:47.496Z,13.47
2023-02-23T14:49:53.056Z,10.77
2023-02-23T14:51:58.583Z,16.57
2023-02-23T14:54:01.742Z,13.43
2023-02-23T14:56:04.770Z,8.53
2023-02-23T14:58:24.087Z,13.80
2023-02-23T15:00:32.397Z,11.50
2023-02-23T15:02:45.892Z,11.23
2023-02-23T15:04:55.986Z,11.83
2023-02-23T15:07:01.651Z,10.47
2023-02-23T15:09:04.711Z,10.73
2023-02-23T15:11:12.575Z,14.57
2023-02-23T15:13:29.067Z,9.93
2023-02-23T15:15:31.932Z,12.30
2023-02-23T15:17:36.056Z,10.50
2023-02-23T15:19:39.278Z,14.07
2023-02-23T15:21:42.019Z,9.27
2023-02-23T15:23:45.809Z,10.97
2023-02-23T15:25:51.015Z,9.70
2023-02-23T15:27:55.973Z,10.13
2023-02-23T15:29:58.750Z,12.40
2023-02-23T15:32:15.951Z,11.80
2023-02-23T15:34:22.332Z,10.80
2023-02-23T15:36:29.381Z,9.15
2023-02-23T15:38:43.466Z,13.90
2023-02-23T15:40:56.618Z,10.50
2023-02-23T15:43:00.666Z,11.13
2023-02-23T15:45:05.798Z,6.60
2023-02-23T15:47:21.526Z,5.15
2023-02-23T15:49:27.947Z,5.30
2023-02-23T15:51:36.109Z,7.37
2023-02-23T15:53:42.130Z,8.07
2023-02-23T15:55:45.531Z,8.43
2023-02-23T15:57:53.878Z,10.37
2023-02-23T15:59:59.676Z,11.00
2023-02-23T16:02:04.042Z,10.00
2023-02-23T16:04:09.309Z,10.70
2023-02-23T16:06:24.232Z,15.10
2023-02-23T16:08:27.198Z,16.67
2023-02-23T16:10:31.117Z,23.23
2023-02-23T16:12:37.594Z,13.60
2023-02-23T16:14:45.849Z,23.53
2023-02-23T16:16:58.441Z,15.83
2023-02-23T16:19:15.385Z,15.70
2023-02-23T16:21:22.018Z,8.60
2023-02-23T16:23:34.130Z,9.97
2023-02-23T16:25:37.330Z,34.47
2023-02-23T16:27:40.434Z,32.23
2023-02-23T16:29:43.315Z,16.37
2023-02-23T16:31:49.333Z,19.27
2023-02-23T16:33:56.847Z,14.00
2023-02-23T16:36:19.437Z,16.57
2023-02-23T16:38:28.067Z,11.53
2023-02-23T16:40:31.320Z,10.43
2023-02-23T16:42:35.772Z,5.97
2023-02-23T16:44:43.701Z,9.70
2023-02-23T16:47:12.481Z,7.80
2023-02-23T16:49:15.236Z,5.67
2023-02-23T16:51:19.416Z,7.87
2023-02-23T16:53:23.227Z,10.70
2023-02-23T16:55:29.026Z,8.45
2023-02-23T16:57:39.450Z,9.05
2023-02-23T16:59:42.230Z,11.93
2023-02-23T17:01:46.668Z,13.07
2023-02-23T17:03:53.193Z,8.13
2023-02-23T17:05:56.433Z,8.75
2023-02-23T17:07:59.488Z,8.02
2023-02-23T17:10:02.398Z,9.68
2023-02-23T17:12:07.005Z,6.47
2023-02-23T17:14:11.852Z,8.48
2023-02-23T17:16:14.912Z,8.25
2023-02-23T17:18:18.109Z,10.25
2023-02-23T17:20:21.488Z,8.63
2023-02-23T17:22:24.286Z,8.77
2023-02-23T17:24:27.093Z,13.07
2023-02-23T17:26:29.940Z,6.82
2023-02-23T17:28:34.262Z,7.50
2023-02-23T17:30:39.248Z,8.68
2023-02-23T17:32:42.340Z,9.93
2023-02-23T17:34:45.218Z,11.15
2023-02-23T17:36:47.931Z,9.48
2023-02-23T17:38:50.828Z,10.20
2023-02-23T17:40:54.788Z,8.85
2023-02-23T17:42:59.369Z,7.60
2023-02-23T17:45:05.245Z,7.10
2023-02-23T17:47:08.138Z,9.82
2023-02-23T17:49:11.009Z,8.85
2023-02-23T17:51:16.722Z,9.40
2023-02-23T17:53:19.944Z,10.00
2023-02-23T17:55:23.715Z,7.40
2023-02-23T17:57:27.645Z,8.15
2023-02-23T17:59:30.422Z,5.93
2023-02-23T18:01:34.478Z,8.65
2023-02-23T18:03:38.465Z,9.13
2023-02-23T18:05:41.227Z,9.32
2023-02-23T18:07:46.486Z,14.13
2023-02-23T18:09:51.001Z,13.85
2023-02-23T18:11:53.712Z,8.55
2023-02-23T18:13:56.433Z,11.52
2023-02-23T18:16:01.666Z,6.50
2023-02-23T18:18:06.015Z,6.80
2023-02-23T18:20:13.974Z,8.15
2023-02-23T18:22:17.347Z,7.93
2023-02-23T18:24:20.876Z,8.25
2023-02-23T18:26:25.501Z,10.90
2023-02-23T18:28:28.333Z,9.50
2023-02-23T18:30:31.093Z,6.75
2023-02-23T18:32:33.892Z,6.15
2023-02-23T18:34:38.673Z,7.57
2023-02-23T18:36:42.593Z,10.50
2023-02-23T18:38:45.294Z,11.20
2023-02-23T18:40:47.985Z,13.05
2023-02-23T18:42:51.055Z,12.50
2023-02-23T18:44:53.754Z,10.15
2023-02-23T18:46:56.517Z,8.48
2023-02-23T18:48:59.763Z,9.48
2023-02-23T18:51:05.756Z,11.80
2023-02-23T18:53:09.062Z,11.48
2023-02-23T18:55:12.204Z,12.75
2023-02-23T18:57:16.046Z,13.52
2023-02-23T18:59:18.821Z,8.68
2023-02-23T19:01:24.329Z,14.23
2023-02-23T19:03:27.169Z,12.15
2023-02-23T19:05:30.098Z,17.30
2023-02-23T19:07:34.323Z,20.35
2023-02-23T19:09:40.715Z,18.00
2023-02-23T19:11:44.376Z,23.48
2023-02-23T19:13:47.098Z,17.42
2023-02-23T19:15:50.209Z,17.70
2023-02-23T19:17:54.358Z,14.63
2023-02-23T19:19:57.564Z,16.02
2023-02-23T19:22:00.286Z,28.48
2023-02-23T19:24:05.665Z,23.17
2023-02-23T19:26:08.664Z,30.77
2023-02-23T19:28:12.908Z,40.25
2023-02-23T19:30:15.761Z,27.48
2023-02-23T19:32:18.623Z,20.25
2023-02-23T19:34:21.326Z,20.23
2023-02-23T19:36:30.573Z,19.05
2023-02-23T19:38:33.441Z,14.38
2023-02-23T19:40:42.514Z,10.52
2023-02-23T19:42:46.033Z,11.25
2023-02-23T19:44:48.741Z,11.65
2023-02-23T19:46:51.583Z,11.68
2023-02-23T19:48:54.556Z,13.13
2023-02-23T19:50:57.413Z,10.50
2023-02-23T19:53:00.099Z,11.00
2023-02-23T19:55:02.931Z,10.90
2023-02-23T19:57:07.034Z,15.38
2023-02-23T19:59:09.853Z,19.23
2023-02-23T20:01:14.611Z,14.70
2023-02-23T20:03:19.843Z,15.77
2023-02-23T20:05:25.550Z,15.45
2023-02-23T20:07:28.389Z,14.60
2023-02-23T20:09:31.127Z,12.70
2023-02-23T20:11:34.230Z,10.98
2023-02-23T20:13:39.137Z,11.82
2023-02-23T20:15:41.945Z,8.98
2023-02-23T20:17:44.661Z,11.60
2023-02-23T20:19:47.407Z,14.48
2023-02-23T20:21:50.498Z,13.55
2023-02-23T20:23:55.378Z,17.05
2023-02-23T20:25:58.125Z,22.55
2023-02-23T20:28:00.859Z,13.30
2023-02-23T20:30:06.514Z,20.88
2023-02-23T20:32:09.512Z,18.58
2023-02-23T20:34:12.257Z,13.40
2023-02-23T20:36:14.995Z,12.98
2023-02-23T20:38:17.703Z,17.40
2023-02-23T20:40:23.024Z,14.48
2023-02-23T20:42:28.173Z,15.82
2023-02-23T20:44:32.891Z,16.15
2023-02-23T20:46:37.018Z,16.08
2023-02-23T20:48:39.978Z,17.15
2023-02-23T20:50:43.290Z,15.77
2023-02-23T20:52:46.652Z,15.05
2023-02-23T20:54:49.437Z,21.52
2023-02-23T20:56:58.829Z,16.88
2023-02-23T20:59:01.862Z,15.60
2023-02-23T21:01:06.754Z,20.83
2023-02-23T21:03:11.134Z,15.68
2023-02-23T21:05:14.807Z,22.63
2023-02-23T21:07:17.710Z,20.35
2023-02-23T21:09:22.043Z,17.17
2023-02-23T21:11:26.527Z,19.95
2023-02-23T21:13:29.358Z,20.75
2023-02-23T21:15:34.960Z,18.05
2023-02-23T21:17:38.470Z,21.38
2023-02-23T21:19:42.689Z,22.60
2023-02-23T21:21:48.079Z,22.63
2023-02-23T21:23:51.554Z,16.88
2023-02-23T21:25:54.292Z,15.40
2023-02-23T21:27:57.154Z,16.27
2023-02-23T21:30:00.658Z,15.48
2023-02-23T21:32:03.478Z,19.25
2023-02-23T21:34:07.008Z,17.38
2023-02-23T21:36:13.331Z,15.90
2023-02-23T21:38:16.062Z,20.42
2023-02-23T21:40:20.725Z,16.52
2023-02-23T21:42:24.089Z,16.00
2023-02-23T21:44:26.945Z,19.65
2023-02-23T21:46:29.811Z,20.02
2023-02-23T21:48:32.497Z,19.17
2023-02-23T21:50:35.242Z,17.50
2023-02-23T21:52:39.275Z,18.90
2023-02-23T21:54:46.564Z,19.23
2023-02-23T21:56:49.259Z,16.85
2023-02-23T21:58:53.342Z,20.63
2023-02-23T22:00:56.041Z,18.50
2023-02-23T22:02:58.746Z,22.08
2023-02-23T22:05:01.533Z,19.63
2023-02-23T22:07:04.280Z,16.77
2023-02-23T22:09:11.036Z,17.35
2023-02-23T22:11:17.444Z,13.77
2023-02-23T22:13:20.378Z,14.35
2023-02-23T22:15:27.112Z,14.52
2023-02-23T22:17:32.711Z,18.55
2023-02-23T22:19:35.656Z,15.25
2023-02-23T22:21:40.013Z,15.20
2023-02-23T22:23:46.805Z,15.38
2023-02-23T22:25:50.875Z,12.65
2023-02-23T22:27:53.585Z,13.93
2023-02-23T22:29:59.411Z,14.98
2023-02-23T22:32:02.550Z,16.10
2023-02-23T22:34:06.218Z,16.67
2023-02-23T22:36:12.951Z,16.25
2023-02-23T22:38:15.730Z,20.90
2023-02-23T22:40:19.020Z,15.65
2023-02-23T22:42:24.358Z,16.50
2023-02-23T22:44:27.190Z,16.48
2023-02-23T22:46:29.907Z,17.65
2023-02-23T22:48:32.715Z,14.43
2023-02-23T22:50:36.445Z,16.90
2023-02-23T22:52:39.267Z,16.52
2023-02-23T22:54:43.745Z,16.02
2023-02-23T22:56:46.954Z,14.70
2023-02-23T22:58:53.564Z,16.65
2023-02-23T23:01:04.091Z,18.08
2023-02-23T23:03:07.908Z,16.92
2023-02-23T23:05:13.268Z,14.30
2023-02-23T23:07:19.947Z,13.20
2023-02-23T23:09:22.736Z,14.82
2023-02-23T23:11:28.132Z,14.68
2023-02-23T23:13:32.861Z,16.35
2023-02-23T23:15:38.950Z,16.27
2023-02-23T23:17:46.269Z,25.50
2023-02-23T23:19:50.216Z,14.98
2023-02-23T23:21:55.563Z,14.10
2023-02-23T23:24:01.102Z,17.38
2023-02-23T23:26:03.867Z,13.77
2023-02-23T23:28:06.568Z,14.85
2023-02-23T23:30:11.462Z,17.80
2023-02-23T23:32:18.171Z,15.88
2023-02-23T23:34:21.835Z,15.13
2023-02-23T23:36:26.645Z,17.42
2023-02-23T23:38:29.539Z,17.38
2023-02-23T23:40:35.718Z,16.15
2023-02-23T23:42:38.984Z,15.13
2023-02-23T23:44:41.688Z,17.10
2023-02-23T23:46:45.953Z,13.68
2023-02-23T23:48:54.278Z,17.05
2023-02-23T23:50:58.133Z,30.58
2023-02-23T23:53:00.787Z,40.22
2023-02-23T23:55:04.580Z,41.30
2023-02-23T23:57:08.159Z,34.53
2023-02-23T23:59:16.302Z,17.27
